CFMGP CYML-CYQB
Flight info
| Callsign | CFMGP |
|---|---|
| Flight time | 0h 17m |
| Altitude | 10500 |
| Route | DRCT |
| Aircraft | B350/L-SBGRWY/S |
Departure
| Time | 2026-04-21 13:57 |
|---|---|
| Airport | Charlevoix Airport (CYML) |
Arrival
| Time | 2026-04-21 14:15 |
|---|---|
| Airport | Quebec Jean Lesage International Airport (CYQB) |
| Time | Latitude | Longitude | Altitude | Speed | Heading |
|---|---|---|---|---|---|
| 2026-04-21 13:53 | 47.59972 | -70.23394 | 999 ft | 0 kts | 327° |
| 2026-04-21 13:55 | 47.59975 | -70.23396 | 996 ft | 4 kts | 339° |
| 2026-04-21 13:55 | 47.60049 | -70.23293 | 993 ft | 22 kts | 68° |
| 2026-04-21 13:56 | 47.60105 | -70.23095 | 992 ft | 17 kts | 81° |
| 2026-04-21 13:56 | 47.60092 | -70.23038 | 993 ft | 0 kts | 123° |
| 2026-04-21 13:56 | 47.60083 | -70.23018 | 986 ft | 23 kts | 123° |
| 2026-04-21 13:56 | 47.59802 | -70.22467 | 990 ft | 104 kts | 127° |
| 2026-04-21 13:57 | 47.59287 | -70.21483 | 1310 ft | 134 kts | 138° |
| 2026-04-21 13:57 | 47.58388 | -70.20961 | 1609 ft | 150 kts | 187° |
| 2026-04-21 13:57 | 47.57497 | -70.21706 | 2413 ft | 153 kts | 235° |
| 2026-04-21 13:57 | 47.57171 | -70.23191 | 3069 ft | 155 kts | 263° |
| 2026-04-21 13:58 | 47.56979 | -70.24757 | 3743 ft | 155 kts | 251° |
| 2026-04-21 13:58 | 47.56557 | -70.26233 | 4359 ft | 157 kts | 243° |
| 2026-04-21 13:58 | 47.55962 | -70.27614 | 4964 ft | 161 kts | 234° |
| 2026-04-21 13:58 | 47.55242 | -70.28894 | 5572 ft | 163 kts | 231° |
| 2026-04-21 13:59 | 47.54479 | -70.30140 | 6215 ft | 164 kts | 230° |
| 2026-04-21 13:59 | 47.53671 | -70.31346 | 6844 ft | 166 kts | 229° |
| 2026-04-21 13:59 | 47.52867 | -70.32580 | 7450 ft | 167 kts | 230° |
| 2026-04-21 13:59 | 47.52049 | -70.33813 | 8081 ft | 168 kts | 229° |
| 2026-04-21 14:00 | 47.51229 | -70.35033 | 8735 ft | 170 kts | 229° |
| 2026-04-21 14:00 | 47.50384 | -70.36271 | 9348 ft | 171 kts | 229° |
| 2026-04-21 14:00 | 47.49535 | -70.37520 | 10000 ft | 173 kts | 230° |
| 2026-04-21 14:00 | 47.48667 | -70.38807 | 10436 ft | 187 kts | 230° |
| 2026-04-21 14:01 | 47.47681 | -70.40273 | 10468 ft | 213 kts | 229° |
| 2026-04-21 14:01 | 47.46586 | -70.41895 | 10496 ft | 231 kts | 228° |
| 2026-04-21 14:01 | 47.45407 | -70.43625 | 10495 ft | 245 kts | 229° |
| 2026-04-21 14:01 | 47.44178 | -70.45432 | 10491 ft | 254 kts | 228° |
| 2026-04-21 14:02 | 47.42907 | -70.47298 | 10504 ft | 260 kts | 228° |
| 2026-04-21 14:02 | 47.41624 | -70.49180 | 10496 ft | 264 kts | 228° |
| 2026-04-21 14:02 | 47.40314 | -70.51107 | 10482 ft | 267 kts | 228° |
| 2026-04-21 14:03 | 47.37656 | -70.55004 | 10485 ft | 270 kts | 227° |
| 2026-04-21 14:03 | 47.36312 | -70.56953 | 10474 ft | 271 kts | 228° |
| 2026-04-21 14:03 | 47.34973 | -70.58921 | 10469 ft | 272 kts | 228° |
| 2026-04-21 14:03 | 47.33633 | -70.60879 | 10474 ft | 271 kts | 228° |
| 2026-04-21 14:04 | 47.32295 | -70.62836 | 10478 ft | 270 kts | 228° |
| 2026-04-21 14:04 | 47.30958 | -70.64781 | 10476 ft | 270 kts | 227° |
| 2026-04-21 14:04 | 47.29638 | -70.66707 | 10489 ft | 271 kts | 228° |
| 2026-04-21 14:04 | 47.28298 | -70.68665 | 10525 ft | 271 kts | 229° |
| 2026-04-21 14:05 | 47.26981 | -70.70618 | 10521 ft | 272 kts | 226° |
| 2026-04-21 14:05 | 47.25607 | -70.72540 | 10511 ft | 272 kts | 227° |
| 2026-04-21 14:05 | 47.24266 | -70.74505 | 10506 ft | 272 kts | 228° |
| 2026-04-21 14:05 | 47.22929 | -70.76477 | 10484 ft | 272 kts | 229° |
| 2026-04-21 14:06 | 47.21605 | -70.78465 | 10454 ft | 272 kts | 228° |
| 2026-04-21 14:06 | 47.20249 | -70.80453 | 10240 ft | 279 kts | 227° |
| 2026-04-21 14:06 | 47.18855 | -70.82474 | 9956 ft | 283 kts | 227° |
| 2026-04-21 14:06 | 47.17435 | -70.84507 | 9675 ft | 286 kts | 227° |
| 2026-04-21 14:07 | 47.16031 | -70.86532 | 9423 ft | 286 kts | 227° |
| 2026-04-21 14:07 | 47.14608 | -70.88576 | 9135 ft | 285 kts | 226° |
| 2026-04-21 14:07 | 47.13173 | -70.90579 | 8848 ft | 283 kts | 226° |
| 2026-04-21 14:07 | 47.11764 | -70.92611 | 8385 ft | 283 kts | 227° |
| 2026-04-21 14:08 | 47.10374 | -70.94629 | 7893 ft | 280 kts | 227° |
| 2026-04-21 14:08 | 47.08989 | -70.96622 | 7414 ft | 277 kts | 226° |
| 2026-04-21 14:08 | 47.07733 | -70.98426 | 6996 ft | 275 kts | 226° |
| 2026-04-21 14:08 | 47.06370 | -71.00378 | 6514 ft | 273 kts | 226° |
| 2026-04-21 14:09 | 47.05022 | -71.02320 | 6048 ft | 271 kts | 226° |
| 2026-04-21 14:09 | 47.03672 | -71.04225 | 5638 ft | 268 kts | 226° |
| 2026-04-21 14:09 | 47.02362 | -71.06154 | 5186 ft | 266 kts | 227° |
| 2026-04-21 14:09 | 47.01057 | -71.08030 | 4703 ft | 264 kts | 223° |
| 2026-04-21 14:10 | 46.99736 | -71.09879 | 4230 ft | 262 kts | 227° |
| 2026-04-21 14:10 | 46.98467 | -71.11787 | 3754 ft | 260 kts | 225° |
| 2026-04-21 14:10 | 46.97143 | -71.13580 | 3254 ft | 258 kts | 223° |
| 2026-04-21 14:10 | 46.95878 | -71.15419 | 3009 ft | 249 kts | 226° |
| 2026-04-21 14:11 | 46.94691 | -71.17151 | 3115 ft | 236 kts | 224° |
| 2026-04-21 14:11 | 46.93497 | -71.18805 | 3163 ft | 237 kts | 224° |
| 2026-04-21 14:11 | 46.92321 | -71.20523 | 3292 ft | 240 kts | 228° |
| 2026-04-21 14:11 | 46.91102 | -71.22217 | 3263 ft | 244 kts | 220° |
| 2026-04-21 14:12 | 46.89860 | -71.23916 | 3027 ft | 243 kts | 227° |
| 2026-04-21 14:12 | 46.88738 | -71.25672 | 2512 ft | 232 kts | 225° |
| 2026-04-21 14:12 | 46.87612 | -71.27254 | 2101 ft | 218 kts | 224° |
| 2026-04-21 14:12 | 46.86538 | -71.28732 | 1554 ft | 207 kts | 223° |
| 2026-04-21 14:13 | 46.85517 | -71.30153 | 1234 ft | 192 kts | 224° |
| 2026-04-21 14:13 | 46.84619 | -71.31468 | 1212 ft | 180 kts | 225° |
| 2026-04-21 14:13 | 46.83749 | -71.32711 | 1185 ft | 164 kts | 224° |
| 2026-04-21 14:13 | 46.82949 | -71.33852 | 1108 ft | 161 kts | 225° |
| 2026-04-21 14:14 | 46.82142 | -71.35029 | 874 ft | 167 kts | 225° |
| 2026-04-21 14:14 | 46.81324 | -71.36205 | 630 ft | 153 kts | 224° |
| 2026-04-21 14:14 | 46.80663 | -71.37143 | 446 ft | 118 kts | 224° |
| 2026-04-21 14:14 | 46.80114 | -71.37932 | 294 ft | 105 kts | 224° |
| 2026-04-21 14:15 | 46.79714 | -71.38511 | 249 ft | 41 kts | 225° |
| 2026-04-21 14:15 | 46.79548 | -71.38752 | 249 ft | 23 kts | 218° |
| 2026-04-21 14:15 | 46.79486 | -71.38700 | 249 ft | 10 kts | 106° |
| 2026-04-21 14:15 | 46.79455 | -71.38602 | 249 ft | 14 kts | 143° |
| 2026-04-21 14:16 | 46.79366 | -71.38548 | 249 ft | 13 kts | 182° |
| 2026-04-21 14:16 | 46.79286 | -71.38569 | 249 ft | 15 kts | 189° |
| 2026-04-21 14:16 | 46.79168 | -71.38600 | 249 ft | 18 kts | 189° |
| 2026-04-21 14:16 | 46.79054 | -71.38621 | 249 ft | 15 kts | 156° |
| 2026-04-21 14:17 | 46.78967 | -71.38548 | 249 ft | 13 kts | 144° |
| 2026-04-21 14:17 | 46.78946 | -71.38436 | 249 ft | 10 kts | 82° |
| 2026-04-21 14:17 | 46.78947 | -71.38355 | 249 ft | 7 kts | 25° |
| 2026-04-21 14:17 | 46.78992 | -71.38362 | 249 ft | 5 kts | 351° |
| 2026-04-21 14:18 | 46.78997 | -71.38363 | 249 ft | 0 kts | 351° |